Time;durP1;ratioP1;P1;durP2;ratioP2;P2;SDS_P1;SDS_P2;PMS_P1;PMS_P2;Temp;Humidity;BMP_temperature;BMP_pressure;BME280_temperature;BME280_humidity;BME280_pressure;Samples;Min_cycle;Max_cycle;Signal;HPM_P1;HPM_P2
2021/04/30 00:01:58;;;;;;;5.60;4.05;;;10.70;99.90;;;;;;5029909;28;20401;-83
2021/04/30 00:04:24;;;;;;;5.68;4.00;;;10.70;99.90;;;;;;5029034;28;20420;-83
2021/04/30 00:06:50;;;;;;;7.30;4.60;;;10.70;99.90;;;;;;5029502;28;20025;-83
2021/04/30 00:09:15;;;;;;;5.30;4.10;;;10.70;99.90;;;;;;5029666;28;20120;-83
2021/04/30 00:11:41;;;;;;;4.95;3.83;;;10.80;99.90;;;;;;5030271;28;20029;-83
2021/04/30 00:14:07;;;;;;;4.35;3.60;;;11.00;99.90;;;;;;5028515;28;20063;-82
2021/04/30 00:16:32;;;;;;;5.78;4.10;;;11.40;99.90;;;;;;5029687;28;20398;-83
2021/04/30 00:18:58;;;;;;;5.72;4.53;;;11.10;99.90;;;;;;5029763;28;20481;-83
2021/04/30 00:21:23;;;;;;;7.60;4.68;;;11.20;99.90;;;;;;5029563;28;20025;-82
2021/04/30 00:23:52;;;;;;;5.60;3.60;;;11.10;99.90;;;;;;5031131;28;20026;-83
2021/04/30 00:26:18;;;;;;;4.93;3.95;;;11.20;99.90;;;;;;5029958;28;20022;-83
2021/04/30 00:28:43;;;;;;;4.95;3.75;;;11.20;99.90;;;;;;5029857;28;20554;-82
2021/04/30 00:31:09;;;;;;;4.35;3.85;;;11.20;99.90;;;;;;5029294;28;20042;-82
2021/04/30 00:33:35;;;;;;;4.53;3.90;;;11.40;99.90;;;;;;5028749;28;20506;-83
2021/04/30 00:36:02;;;;;;;5.22;3.92;;;11.70;99.90;;;;;;5030115;28;20033;-82
2021/04/30 00:38:27;;;;;;;5.10;3.70;;;11.60;99.90;;;;;;5028741;28;20120;-83
2021/04/30 00:40:53;;;;;;;5.07;3.70;;;11.60;99.90;;;;;;5028055;28;20035;-83
2021/04/30 00:43:19;;;;;;;15.40;3.80;;;11.50;99.90;;;;;;5028296;28;20112;-83
2021/04/30 00:45:45;;;;;;;7.03;3.90;;;11.50;99.90;;;;;;5027900;28;20021;-83
2021/04/30 00:48:11;;;;;;;4.85;3.70;;;11.50;99.90;;;;;;5035021;28;20397;-83
2021/04/30 00:50:37;;;;;;;5.03;3.33;;;11.50;99.90;;;;;;5032883;28;20089;-83
2021/04/30 00:53:03;;;;;;;5.90;3.75;;;11.00;99.90;;;;;;5032439;28;20033;-83
2021/04/30 00:55:28;;;;;;;5.07;3.65;;;10.90;99.90;;;;;;5033163;28;20036;-82
2021/04/30 00:57:57;;;;;;;5.63;3.63;;;11.20;99.90;;;;;;5032748;28;20044;-82
2021/04/30 01:00:25;;;;;;;5.00;3.60;;;11.30;99.90;;;;;;5033948;28;20030;-82
2021/04/30 01:02:52;;;;;;;4.25;3.85;;;11.40;99.90;;;;;;5033983;28;20486;-83
2021/04/30 01:05:18;;;;;;;5.63;3.97;;;11.60;99.90;;;;;;5032764;28;20532;-83
2021/04/30 01:07:44;;;;;;;4.53;3.75;;;11.50;99.90;;;;;;5032049;28;20029;-83
2021/04/30 01:10:10;;;;;;;4.35;3.95;;;11.50;99.90;;;;;;5032451;28;20029;-83
2021/04/30 01:12:36;;;;;;;6.72;4.18;;;11.60;99.90;;;;;;5032813;28;20101;-83
2021/04/30 01:15:02;;;;;;;6.38;3.95;;;12.00;99.90;;;;;;5034425;28;20447;-83
2021/04/30 01:17:28;;;;;;;6.63;4.00;;;11.60;99.90;;;;;;5032270;28;20051;-83
2021/04/30 01:19:58;;;;;;;5.72;4.40;;;11.60;99.90;;;;;;5032234;28;20025;-83
2021/04/30 01:22:44;;;;;;;4.95;4.40;;;11.30;99.90;;;;;;5029939;28;20043;-82
2021/04/30 01:25:13;;;;;;;5.13;4.45;;;11.10;99.90;;;;;;5032499;28;20116;-83
2021/04/30 01:27:39;;;;;;;4.20;3.80;;;11.20;99.90;;;;;;5032481;28;20026;-83
2021/04/30 01:30:12;;;;;;;5.80;3.60;;;11.30;99.90;;;;;;5034414;28;20109;-83
2021/04/30 01:32:37;;;;;;;5.40;3.70;;;11.40;99.90;;;;;;5031998;28;20037;-82
2021/04/30 01:35:07;;;;;;;5.05;3.53;;;11.00;99.90;;;;;;5031724;28;20516;-82
2021/04/30 01:37:32;;;;;;;6.13;3.50;;;11.10;99.90;;;;;;5032409;28;20052;-82
2021/04/30 01:39:58;;;;;;;4.43;3.78;;;11.20;99.90;;;;;;5031833;28;20021;-83
2021/04/30 01:42:24;;;;;;;6.32;3.83;;;11.30;99.90;;;;;;5033036;28;20036;-83
2021/04/30 01:44:50;;;;;;;4.53;3.58;;;11.60;99.90;;;;;;5033265;28;20440;-83
2021/04/30 01:47:17;;;;;;;5.78;3.40;;;11.30;99.90;;;;;;5029851;28;20516;-83
2021/04/30 01:49:44;;;;;;;5.40;3.80;;;11.30;99.90;;;;;;5032036;28;20033;-83
2021/04/30 01:52:09;;;;;;;4.10;3.65;;;11.30;99.90;;;;;;5031622;28;20037;-82
2021/04/30 01:54:35;;;;;;;4.75;3.88;;;11.00;99.90;;;;;;5031865;28;20057;-83
2021/04/30 01:57:01;;;;;;;6.88;4.03;;;11.20;99.90;;;;;;5033001;28;20059;-82
2021/04/30 01:59:26;;;;;;;7.53;4.78;;;10.90;99.90;;;;;;5032301;28;20025;-83
2021/04/30 02:01:52;;;;;;;7.30;4.20;;;11.00;99.90;;;;;;5030095;28;20473;-82
2021/04/30 02:04:18;;;;;;;4.35;3.78;;;11.20;99.90;;;;;;5031292;28;20029;-83
2021/04/30 02:06:46;;;;;;;4.68;4.13;;;11.20;99.90;;;;;;5031782;28;20036;-83
2021/04/30 02:09:12;;;;;;;4.13;3.70;;;11.20;99.90;;;;;;5030048;28;20018;-83
2021/04/30 02:11:38;;;;;;;4.05;3.65;;;11.30;99.90;;;;;;5031111;28;20478;-82
2021/04/30 02:14:05;;;;;;;7.05;3.90;;;11.20;99.90;;;;;;5031321;28;20024;-83
2021/04/30 02:16:31;;;;;;;4.65;3.70;;;11.30;99.90;;;;;;5031642;28;20542;-83
2021/04/30 02:18:58;;;;;;;6.05;4.15;;;11.50;99.90;;;;;;5030754;28;20033;-83
2021/04/30 02:21:23;;;;;;;7.22;4.72;;;11.40;99.90;;;;;;5032086;28;20025;-83
2021/04/30 02:23:49;;;;;;;6.05;4.07;;;11.50;99.90;;;;;;5032766;28;20028;-83
2021/04/30 02:26:16;;;;;;;6.43;4.18;;;12.00;99.90;;;;;;5031161;28;20413;-83
2021/04/30 02:28:45;;;;;;;6.10;3.90;;;11.60;99.90;;;;;;5031178;28;20024;-83
2021/04/30 02:31:15;;;;;;;6.88;4.32;;;11.60;99.90;;;;;;5030808;28;20101;-83
2021/04/30 02:33:44;;;;;;;5.38;3.67;;;11.50;99.90;;;;;;5030768;28;20025;-83
2021/04/30 02:36:10;;;;;;;4.97;3.67;;;11.60;99.90;;;;;;5033234;28;20124;-82
2021/04/30 02:38:36;;;;;;;4.03;3.63;;;11.70;99.90;;;;;;5031062;28;20037;-82
2021/04/30 02:41:02;;;;;;;4.53;3.53;;;11.70;99.90;;;;;;5029185;28;20505;-83
2021/04/30 02:43:28;;;;;;;3.75;3.35;;;12.10;99.90;;;;;;5030586;28;20099;-83
2021/04/30 02:45:55;;;;;;;5.07;4.00;;;11.70;99.90;;;;;;5030999;28;20482;-83
2021/04/30 02:48:26;;;;;;;3.58;3.25;;;11.70;99.90;;;;;;5031607;28;20068;-82
2021/04/30 02:50:52;;;;;;;7.90;3.50;;;11.60;99.90;;;;;;5032319;28;20041;-83
2021/04/30 02:53:18;;;;;;;5.32;3.88;;;11.50;99.90;;;;;;5031221;28;20029;-83
2021/04/30 02:55:44;;;;;;;7.25;4.05;;;11.50;99.90;;;;;;5029974;28;20033;-83
2021/04/30 02:58:11;;;;;;;6.45;3.60;;;11.60;99.90;;;;;;5031268;28;20041;-82
2021/04/30 03:00:36;;;;;;;3.95;3.58;;;11.60;99.90;;;;;;5030438;28;20076;-83
2021/04/30 03:03:02;;;;;;;4.80;3.40;;;11.60;99.90;;;;;;5032356;28;20025;-82
2021/04/30 03:05:28;;;;;;;4.93;3.83;;;11.70;99.90;;;;;;5027991;28;20041;-83
2021/04/30 03:07:54;;;;;;;3.67;3.10;;;11.90;99.90;;;;;;5030058;28;20029;-82
2021/04/30 03:10:20;;;;;;;5.50;3.70;;;11.90;99.90;;;;;;5029955;28;20116;-82
2021/04/30 03:12:46;;;;;;;4.72;3.40;;;11.60;99.90;;;;;;5030670;28;20088;-82
2021/04/30 03:15:14;;;;;;;4.00;3.60;;;11.60;99.90;;;;;;5032200;28;20022;-82
2021/04/30 03:17:41;;;;;;;4.60;3.45;;;11.60;99.90;;;;;;5028411;28;20034;-82
2021/04/30 03:20:07;;;;;;;4.03;3.60;;;11.50;99.90;;;;;;5028903;28;20136;-82
2021/04/30 03:22:33;;;;;;;6.28;3.67;;;11.40;99.90;;;;;;5030480;28;20080;-82
2021/04/30 03:24:59;;;;;;;6.10;3.97;;;11.50;99.90;;;;;;5029865;28;20033;-82
2021/04/30 03:27:26;;;;;;;5.68;3.50;;;11.40;99.90;;;;;;5029244;28;20025;-83
2021/04/30 03:29:52;;;;;;;3.80;3.50;;;11.40;99.90;;;;;;5031935;28;20052;-82
2021/04/30 03:32:18;;;;;;;5.95;3.55;;;11.70;99.90;;;;;;5028925;28;20493;-83
2021/04/30 03:34:43;;;;;;;6.07;3.70;;;11.40;99.90;;;;;;5030192;28;20032;-82
2021/04/30 03:37:09;;;;;;;4.32;3.83;;;11.40;99.90;;;;;;5029616;28;20033;-82
2021/04/30 03:39:34;;;;;;;6.85;4.28;;;11.50;99.90;;;;;;5029773;28;20048;-82
2021/04/30 03:42:00;;;;;;;4.13;3.72;;;11.50;99.90;;;;;;5032278;28;20036;-82
2021/04/30 03:44:26;;;;;;;4.90;4.00;;;11.50;99.90;;;;;;5029906;28;20435;-83
2021/04/30 03:46:51;;;;;;;4.20;3.70;;;11.50;99.90;;;;;;5028496;28;20485;-83
2021/04/30 03:49:17;;;;;;;7.00;4.07;;;11.70;99.90;;;;;;5030232;28;20038;-83
2021/04/30 03:51:43;;;;;;;4.35;3.97;;;11.50;99.90;;;;;;5029792;28;20547;-83
2021/04/30 03:54:08;;;;;;;5.40;4.00;;;11.60;99.90;;;;;;5031756;28;20029;-82
2021/04/30 03:56:34;;;;;;;4.45;4.05;;;11.60;99.90;;;;;;5030107;28;20060;-82
2021/04/30 03:59:00;;;;;;;5.90;3.90;;;11.60;99.90;;;;;;5028201;28;20041;-82
2021/04/30 04:01:25;;;;;;;4.60;4.05;;;11.70;99.90;;;;;;5029982;28;20025;-83
2021/04/30 04:03:53;;;;;;;4.18;3.88;;;11.70;99.90;;;;;;5029789;28;20129;-82
2021/04/30 04:06:19;;;;;;;5.95;4.05;;;11.60;99.90;;;;;;5031013;28;20112;-83
2021/04/30 04:08:44;;;;;;;7.00;4.53;;;11.90;99.90;;;;;;5030384;28;20450;-82
2021/04/30 04:11:10;;;;;;;5.20;4.70;;;11.80;99.90;;;;;;5029610;28;20065;-82
2021/04/30 04:13:36;;;;;;;6.10;4.72;;;11.60;99.90;;;;;;5029654;28;20021;-82
2021/04/30 04:16:03;;;;;;;5.55;4.40;;;11.70;99.90;;;;;;5029189;28;20030;-83
2021/04/30 04:18:29;;;;;;;5.40;4.55;;;11.90;99.90;;;;;;5030192;28;20037;-83
2021/04/30 04:20:55;;;;;;;4.93;4.53;;;11.70;99.90;;;;;;5029584;28;20029;-83
2021/04/30 04:23:21;;;;;;;5.13;4.00;;;11.70;99.90;;;;;;5034150;28;20120;-83
2021/04/30 04:25:46;;;;;;;4.75;3.95;;;12.10;99.90;;;;;;5033800;28;20037;-83
2021/04/30 04:28:12;;;;;;;4.40;4.00;;;11.80;99.90;;;;;;5033277;28;20037;-82
2021/04/30 04:30:39;;;;;;;5.03;4.57;;;11.80;99.90;;;;;;5033471;28;20026;-82
2021/04/30 04:33:05;;;;;;;5.53;4.45;;;11.80;99.90;;;;;;5034772;28;20037;-82
2021/04/30 04:35:30;;;;;;;5.95;4.75;;;11.80;99.90;;;;;;5031592;28;20056;-83
2021/04/30 04:37:56;;;;;;;8.13;4.53;;;12.00;99.90;;;;;;5032815;28;20512;-82
2021/04/30 04:40:23;;;;;;;6.03;4.75;;;11.80;99.90;;;;;;5033267;28;20025;-82
2021/04/30 04:42:49;;;;;;;8.10;4.85;;;11.60;99.90;;;;;;5032777;28;20026;-82
2021/04/30 04:45:15;;;;;;;6.20;4.45;;;11.70;99.90;;;;;;5034318;28;20090;-85
2021/04/30 04:47:42;;;;;;;5.30;4.50;;;11.70;99.90;;;;;;5033493;28;20042;-85
2021/04/30 04:50:10;;;;;;;6.55;4.68;;;11.70;99.90;;;;;;5033950;28;20044;-86
2021/04/30 04:52:36;;;;;;;6.97;5.03;;;11.60;99.90;;;;;;5033336;28;20053;-85
2021/04/30 04:55:03;;;;;;;6.95;4.82;;;11.60;99.90;;;;;;5031351;28;20451;-85
2021/04/30 04:57:28;;;;;;;6.22;4.90;;;11.50;99.90;;;;;;5032026;28;20045;-84
2021/04/30 04:59:54;;;;;;;5.70;4.97;;;11.60;99.90;;;;;;5034211;28;20029;-83
2021/04/30 05:02:19;;;;;;;7.55;5.47;;;11.50;99.90;;;;;;5032794;28;20499;-81
2021/04/30 05:04:45;;;;;;;6.32;5.72;;;11.40;99.90;;;;;;5032333;28;20487;-83
2021/04/30 05:07:11;;;;;;;6.75;6.05;;;11.40;99.90;;;;;;5031366;28;20032;-83
2021/04/30 05:09:36;;;;;;;10.65;6.10;;;11.30;99.90;;;;;;5032464;28;20022;-83
2021/04/30 05:12:02;;;;;;;6.85;6.05;;;11.40;99.90;;;;;;5034625;28;20017;-83
2021/04/30 05:14:28;;;;;;;8.20;5.95;;;11.40;99.90;;;;;;5031887;28;20579;-83
2021/04/30 05:16:53;;;;;;;6.28;5.68;;;11.30;99.90;;;;;;5026574;28;20049;-83
2021/04/30 05:19:19;;;;;;;8.63;6.25;;;11.30;99.90;;;;;;5031169;28;20021;-83
2021/04/30 05:21:46;;;;;;;9.13;7.22;;;11.80;99.90;;;;;;5030852;28;20494;-83
2021/04/30 05:24:13;;;;;;;8.38;7.57;;;11.30;99.90;;;;;;5030017;28;20021;-83
2021/04/30 05:26:40;;;;;;;9.40;7.95;;;11.30;99.90;;;;;;5031907;28;20096;-86
2021/04/30 05:29:06;;;;;;;9.20;8.30;;;11.30;99.90;;;;;;5031666;28;20098;-82
2021/04/30 05:31:34;;;;;;;10.23;8.45;;;11.50;99.90;;;;;;5031671;28;20053;-83
2021/04/30 05:34:00;;;;;;;10.57;9.40;;;11.30;99.90;;;;;;5031847;28;20018;-83
2021/04/30 05:36:25;;;;;;;10.77;9.32;;;11.30;99.90;;;;;;5033304;28;20029;-83
2021/04/30 05:38:51;;;;;;;11.00;9.85;;;11.40;99.90;;;;;;5030210;28;20516;-83
2021/04/30 05:41:17;;;;;;;12.80;10.05;;;11.10;99.90;;;;;;5032238;28;20029;-82
2021/04/30 05:43:43;;;;;;;11.88;9.85;;;10.90;99.90;;;;;;5032060;28;20028;-83
2021/04/30 05:46:08;;;;;;;11.07;9.82;;;10.90;1.00;;;;;;5030455;28;20033;-83
2021/04/30 05:48:34;;;;;;;10.30;9.30;;;10.90;1.00;;;;;;5032575;28;20055;-83
2021/04/30 05:50:59;;;;;;;9.40;8.13;;;10.70;1.00;;;;;;5033992;28;20394;-83
2021/04/30 05:53:25;;;;;;;10.77;9.10;;;10.60;1.00;;;;;;5031621;28;20025;-83
2021/04/30 05:55:51;;;;;;;9.13;8.23;;;10.50;1.00;;;;;;5029676;28;20033;-83
2021/04/30 05:58:16;;;;;;;10.00;8.25;;;10.60;1.00;;;;;;5031877;28;20033;-83
2021/04/30 06:00:42;;;;;;;13.82;8.70;;;10.50;1.00;;;;;;5032042;28;20056;-83
2021/04/30 06:03:08;;;;;;;9.00;8.10;;;10.50;1.00;;;;;;5033096;28;20475;-83
2021/04/30 06:05:33;;;;;;;9.45;8.55;;;10.60;1.00;;;;;;5031475;28;20051;-84
2021/04/30 06:07:59;;;;;;;9.48;8.18;;;10.60;1.00;;;;;;5031804;28;20060;-84
2021/04/30 06:10:25;;;;;;;8.57;7.65;;;10.90;1.00;;;;;;5031002;28;20029;-84
2021/04/30 06:12:50;;;;;;;10.60;8.75;;;10.70;1.00;;;;;;5031173;28;20052;-83
2021/04/30 06:15:16;;;;;;;10.57;9.38;;;10.60;1.00;;;;;;5032891;28;20052;-83
2021/04/30 06:17:42;;;;;;;9.02;8.10;;;10.70;1.00;;;;;;5032009;28;20095;-84
2021/04/30 06:20:08;;;;;;;10.60;9.50;;;10.70;1.00;;;;;;5029423;28;20524;-84
2021/04/30 06:22:35;;;;;;;9.70;8.40;;;10.70;1.00;;;;;;5031545;28;20113;-83
2021/04/30 06:25:01;;;;;;;9.55;8.57;;;10.70;1.00;;;;;;5031107;28;20400;-84
2021/04/30 06:27:26;;;;;;;10.05;8.63;;;10.90;1.00;;;;;;5031617;28;20029;-83
2021/04/30 06:29:52;;;;;;;10.70;9.13;;;10.70;1.00;;;;;;5032616;28;20021;-83
2021/04/30 06:32:17;;;;;;;9.73;8.70;;;10.80;1.00;;;;;;5029799;28;20140;-84
2021/04/30 06:34:43;;;;;;;11.05;8.88;;;10.90;1.00;;;;;;5029508;28;20059;-84
2021/04/30 06:37:09;;;;;;;9.80;8.70;;;10.80;1.00;;;;;;5030182;28;20041;-83
2021/04/30 06:39:34;;;;;;;11.40;9.57;;;10.60;1.00;;;;;;5031391;28;20504;-83
2021/04/30 06:42:02;;;;;;;11.32;9.93;;;10.70;1.00;;;;;;5031747;28;20041;-83
2021/04/30 06:44:29;;;;;;;12.35;9.82;;;10.60;1.00;;;;;;5030680;28;20444;-83
2021/04/30 06:46:56;;;;;;;11.52;9.52;;;10.60;1.00;;;;;;5029474;28;20025;-83
2021/04/30 06:49:22;;;;;;;11.02;8.80;;;10.60;1.00;;;;;;5031139;28;20508;-84
2021/04/30 06:51:49;;;;;;;10.65;9.55;;;10.60;1.00;;;;;;5031291;28;20065;-83
2021/04/30 06:54:15;;;;;;;13.57;10.52;;;10.70;1.00;;;;;;5032394;28;20022;-84
2021/04/30 06:56:41;;;;;;;10.93;9.25;;;10.80;1.00;;;;;;5028946;28;20079;-83
2021/04/30 06:59:07;;;;;;;10.20;8.75;;;10.70;1.00;;;;;;5031167;28;20124;-84
2021/04/30 07:01:32;;;;;;;10.43;8.50;;;10.60;1.00;;;;;;5030673;28;20030;-83
2021/04/30 07:03:58;;;;;;;9.15;8.20;;;10.60;1.00;;;;;;5030987;28;20029;-84
2021/04/30 07:06:24;;;;;;;8.90;7.97;;;11.00;1.00;;;;;;5031781;28;20546;-84
2021/04/30 07:08:50;;;;;;;9.57;7.65;;;10.70;1.00;;;;;;5031089;28;20017;-84
2021/04/30 07:11:16;;;;;;;8.35;7.50;;;10.90;1.00;;;;;;5030326;28;20033;-83
2021/04/30 07:13:41;;;;;;;7.75;6.85;;;10.90;1.00;;;;;;5028959;28;20029;-84
2021/04/30 07:16:07;;;;;;;7.85;6.45;;;10.90;1.00;;;;;;5030407;28;20072;-83
2021/04/30 07:18:33;;;;;;;8.13;6.63;;;10.80;1.00;;;;;;5030629;28;20041;-83
2021/04/30 07:20:59;;;;;;;10.48;7.05;;;10.90;1.00;;;;;;5032499;28;20033;-83
2021/04/30 07:23:26;;;;;;;6.30;5.70;;;10.80;1.00;;;;;;5028761;28;20059;-84
2021/04/30 07:25:51;;;;;;;6.75;6.05;;;10.70;1.00;;;;;;5026567;28;20113;-83
2021/04/30 07:28:17;;;;;;;5.93;5.05;;;10.90;1.00;;;;;;5028938;28;20116;-84
2021/04/30 07:30:43;;;;;;;6.25;5.50;;;10.80;1.00;;;;;;5031117;28;20030;-84
2021/04/30 07:33:09;;;;;;;6.20;4.88;;;11.10;1.00;;;;;;5032512;28;20433;-85
2021/04/30 07:35:35;;;;;;;8.32;5.63;;;10.90;1.00;;;;;;5029931;28;20380;-84
2021/04/30 07:38:00;;;;;;;6.55;5.43;;;10.60;1.00;;;;;;5029219;28;20083;-84
2021/04/30 07:40:26;;;;;;;7.97;5.38;;;10.80;1.00;;;;;;5030578;28;20013;-83
2021/04/30 07:42:52;;;;;;;6.80;5.70;;;10.80;1.00;;;;;;5028898;28;20414;-83
2021/04/30 07:45:18;;;;;;;5.88;5.13;;;10.90;1.00;;;;;;5031732;28;20021;-83
2021/04/30 07:47:44;;;;;;;6.60;5.68;;;10.70;1.00;;;;;;5030975;28;20038;-83
2021/04/30 07:50:10;;;;;;;6.38;5.78;;;10.60;1.00;;;;;;5028739;28;20026;-83
2021/04/30 07:52:36;;;;;;;5.82;5.28;;;10.50;1.00;;;;;;5027858;28;20520;-83
2021/04/30 07:55:02;;;;;;;6.55;5.85;;;10.40;1.00;;;;;;5030348;28;20022;-83
2021/04/30 07:57:33;;;;;;;8.63;6.10;;;10.60;1.00;;;;;;5034511;28;20045;-83
2021/04/30 07:59:59;;;;;;;7.60;6.47;;;10.80;1.00;;;;;;5034418;28;20025;-84
2021/04/30 08:02:24;;;;;;;7.68;6.35;;;11.10;1.00;;;;;;5033824;28;20029;-83
2021/04/30 08:04:50;;;;;;;8.63;6.90;;;11.00;1.00;;;;;;5033647;28;20060;-83
2021/04/30 08:07:15;;;;;;;7.55;6.78;;;10.90;1.00;;;;;;5033179;28;20025;-85
2021/04/30 08:09:41;;;;;;;12.07;7.68;;;11.00;1.00;;;;;;5033666;28;20025;-86
2021/04/30 08:12:08;;;;;;;10.10;7.03;;;11.10;1.00;;;;;;5035695;28;20025;-85
2021/04/30 08:14:33;;;;;;;8.57;6.72;;;11.10;1.00;;;;;;5033562;28;20030;-82
2021/04/30 08:16:59;;;;;;;10.10;6.90;;;11.10;1.00;;;;;;5033064;28;20036;-82
2021/04/30 08:19:26;;;;;;;11.30;7.45;;;11.20;99.90;;;;;;5032117;28;20044;-83
2021/04/30 08:21:52;;;;;;;12.27;7.13;;;11.50;1.00;;;;;;5032472;28;20017;-83
2021/04/30 08:24:19;;;;;;;9.43;7.80;;;11.30;99.90;;;;;;5034497;28;20116;-83
2021/04/30 08:26:44;;;;;;;10.57;7.82;;;11.20;1.00;;;;;;5033934;28;20029;-82
2021/04/30 08:29:11;;;;;;;9.43;7.57;;;11.40;99.90;;;;;;5033746;28;20463;-83
2021/04/30 08:31:37;;;;;;;10.45;7.97;;;11.50;99.90;;;;;;5030797;28;20052;-82
2021/04/30 08:34:03;;;;;;;9.13;6.75;;;11.50;99.90;;;;;;5033837;28;20103;-83
2021/04/30 08:36:28;;;;;;;10.63;7.93;;;11.40;99.90;;;;;;5030754;28;20481;-83
2021/04/30 08:38:54;;;;;;;9.38;8.15;;;11.60;99.90;;;;;;5050369;28;20037;-83
2021/04/30 08:41:23;;;;;;;8.45;7.60;;;11.60;99.90;;;;;;5032850;28;20041;-82
2021/04/30 08:43:49;;;;;;;10.75;7.80;;;11.80;99.90;;;;;;5032866;28;20029;-84
2021/04/30 08:46:15;;;;;;;7.10;6.40;;;11.90;99.90;;;;;;5033853;28;20500;-88
2021/04/30 08:48:41;;;;;;;8.90;7.53;;;11.80;99.90;;;;;;5033066;28;20025;-84
2021/04/30 08:51:07;;;;;;;9.30;7.47;;;11.80;99.90;;;;;;5033584;28;20541;-84
2021/04/30 08:53:32;;;;;;;6.50;5.90;;;11.90;99.90;;;;;;5032215;28;20033;-84
2021/04/30 08:56:02;;;;;;;6.85;5.97;;;11.70;99.90;;;;;;5032934;28;20093;-83
2021/04/30 08:58:28;;;;;;;6.88;6.20;;;11.60;99.90;;;;;;5033137;28;20033;-84
2021/04/30 09:00:54;;;;;;;7.68;6.07;;;11.60;99.90;;;;;;5033473;28;20540;-84
2021/04/30 09:03:20;;;;;;;7.78;6.07;;;11.70;99.90;;;;;;5034035;28;20026;-84
2021/04/30 09:05:48;;;;;;;7.07;6.35;;;11.50;99.90;;;;;;5032775;28;20357;-83
2021/04/30 09:08:16;;;;;;;6.97;5.72;;;11.40;99.90;;;;;;5031884;28;20053;-83
2021/04/30 09:10:47;;;;;;;8.07;6.88;;;11.30;99.90;;;;;;5031047;28;20032;-84
2021/04/30 09:13:16;;;;;;;7.38;6.68;;;11.40;99.90;;;;;;5032449;28;20124;-83
2021/04/30 09:15:43;;;;;;;6.90;6.07;;;11.40;99.90;;;;;;5032369;28;20069;-84
2021/04/30 09:18:21;;;;;;;7.20;6.50;;;11.20;99.90;;;;;;5034314;28;20132;-84
2021/04/30 09:20:48;;;;;;;7.38;6.68;;;11.60;99.90;;;;;;5032087;28;20030;-84
2021/04/30 09:23:33;;;;;;;6.70;5.85;;;11.70;99.90;;;;;;5032762;28;20079;-84
2021/04/30 09:25:59;;;;;;;6.90;6.20;;;11.80;99.90;;;;;;5032450;28;20033;-84
2021/04/30 09:28:25;;;;;;;7.45;6.72;;;11.60;99.90;;;;;;5032480;28;20072;-84
2021/04/30 09:30:51;;;;;;;8.98;7.90;;;11.50;99.90;;;;;;5031637;28;20056;-84
2021/04/30 09:33:22;;;;;;;9.07;7.95;;;11.40;99.90;;;;;;5034180;28;20049;-84
2021/04/30 09:35:53;;;;;;;9.25;7.93;;;11.40;99.90;;;;;;5033292;28;20025;-84
2021/04/30 09:38:20;;;;;;;7.85;7.07;;;11.50;99.90;;;;;;5032936;28;20048;-84
2021/04/30 09:40:51;;;;;;;9.60;8.40;;;11.50;99.90;;;;;;5031751;28;20025;-84
2021/04/30 09:43:17;;;;;;;7.88;7.07;;;11.50;99.90;;;;;;5030813;28;20094;-84
2021/04/30 09:45:48;;;;;;;7.68;6.88;;;11.50;99.90;;;;;;5016410;28;20050;-84
2021/04/30 09:48:14;;;;;;;7.78;7.05;;;11.50;99.90;;;;;;5030166;28;20421;-84
2021/04/30 09:50:42;;;;;;;10.48;6.45;;;11.70;99.90;;;;;;5030926;28;20026;-84
2021/04/30 09:53:11;;;;;;;7.72;6.72;;;11.60;99.90;;;;;;5032474;28;20037;-84
2021/04/30 09:55:41;;;;;;;8.88;6.80;;;12.20;99.90;;;;;;5031434;28;20117;-84
2021/04/30 09:58:29;;;;;;;7.97;7.18;;;11.70;99.90;;;;;;5031621;28;20045;-84
2021/04/30 10:01:00;;;;;;;6.90;6.00;;;11.50;99.90;;;;;;5017518;28;20092;-84
2021/04/30 10:03:28;;;;;;;6.97;5.88;;;11.40;99.90;;;;;;5032053;28;20393;-84
2021/04/30 10:06:02;;;;;;;5.93;5.43;;;11.40;99.90;;;;;;5033575;28;20021;-84
2021/04/30 10:08:29;;;;;;;5.90;5.32;;;11.40;99.90;;;;;;5031512;28;20037;-84
2021/04/30 10:10:55;;;;;;;6.10;5.50;;;11.40;99.90;;;;;;5031428;28;20112;-84
2021/04/30 10:13:21;;;;;;;5.55;5.05;;;11.80;99.90;;;;;;5031172;28;20124;-85
2021/04/30 10:15:46;;;;;;;5.07;4.65;;;12.10;99.90;;;;;;5031403;28;20022;-84
2021/04/30 10:18:16;;;;;;;5.30;4.80;;;12.00;99.90;;;;;;5033049;28;20077;-84
2021/04/30 10:20:42;;;;;;;5.55;5.05;;;12.00;99.90;;;;;;5031682;28;20048;-84
2021/04/30 10:23:14;;;;;;;5.70;5.15;;;12.40;99.90;;;;;;5031369;28;20080;-84
2021/04/30 10:25:44;;;;;;;6.32;5.20;;;12.30;99.90;;;;;;5030782;28;20028;-84
2021/04/30 10:28:11;;;;;;;5.47;4.93;;;11.90;99.90;;;;;;5029407;28;20091;-84
2021/04/30 10:30:54;;;;;;;5.35;4.80;;;11.60;99.90;;;;;;5031028;28;20033;-84
2021/04/30 10:33:50;;;;;;;5.18;4.68;;;11.60;99.90;;;;;;5029211;28;20046;-83
2021/04/30 10:36:31;;;;;;;4.40;4.00;;;11.60;99.90;;;;;;5028981;28;20441;-84
2021/04/30 10:38:59;;;;;;;4.82;4.32;;;11.50;99.90;;;;;;5030890;28;20038;-84
2021/04/30 10:41:32;;;;;;;3.70;3.35;;;11.70;99.90;;;;;;5030664;28;20070;-84
2021/04/30 10:44:09;;;;;;;3.80;3.40;;;11.60;99.90;;;;;;5029849;28;20413;-84
2021/04/30 10:46:35;;;;;;;3.80;2.90;;;11.50;99.90;;;;;;5027851;28;20033;-84
2021/04/30 10:49:04;;;;;;;2.88;2.67;;;11.90;99.90;;;;;;5030960;28;20493;-84
2021/04/30 10:51:30;;;;;;;2.83;2.63;;;11.80;99.90;;;;;;5031095;28;20024;-84
2021/04/30 10:54:28;;;;;;;3.42;3.13;;;11.90;99.90;;;;;;5030538;28;20037;-84
2021/04/30 10:57:06;;;;;;;3.15;2.85;;;12.00;99.90;;;;;;5032466;28;20033;-84
2021/04/30 10:59:40;;;;;;;4.45;3.15;;;11.90;99.90;;;;;;5030615;28;20052;-84
2021/04/30 11:05:09;;;;;;;2.85;2.55;;;11.80;99.90;;;;;;5029966;28;20405;-84
2021/04/30 11:07:47;;;;;;;2.85;2.58;;;11.90;99.90;;;;;;5028971;28;20025;-85
2021/04/30 11:10:31;;;;;;;2.95;2.67;;;11.90;99.90;;;;;;5030499;28;20033;-84
2021/04/30 11:13:23;;;;;;;3.65;2.75;;;12.00;99.90;;;;;;5017194;28;20025;-84
2021/04/30 11:15:50;;;;;;;4.63;2.60;;;12.10;99.90;;;;;;5014892;28;20037;-84
2021/04/30 11:18:19;;;;;;;3.55;2.65;;;12.00;99.90;;;;;;5033130;28;20048;-84
2021/04/30 11:21:02;;;;;;;2.63;2.42;;;12.60;99.90;;;;;;5029414;28;20018;-84
2021/04/30 11:23:39;;;;;;;2.85;2.45;;;12.60;99.90;;;;;;5030329;28;20497;-85
2021/04/30 11:26:11;;;;;;;2.75;2.50;;;12.60;99.90;;;;;;5030154;28;20037;-84
2021/04/30 11:28:40;;;;;;;2.50;2.30;;;13.00;99.90;;;;;;5030386;28;20413;-84
2021/04/30 11:31:08;;;;;;;3.15;2.63;;;12.10;99.90;;;;;;5029653;28;20080;-84
2021/04/30 11:33:37;;;;;;;3.13;2.92;;;12.30;99.90;;;;;;5030151;28;20513;-85
2021/04/30 11:36:04;;;;;;;2.60;2.08;;;12.20;99.90;;;;;;5032006;28;20025;-84
2021/04/30 11:38:41;;;;;;;2.42;2.22;;;12.20;99.90;;;;;;5029796;28;20095;-84
2021/04/30 11:41:09;;;;;;;2.30;2.10;;;11.90;99.90;;;;;;5029486;28;20092;-84
2021/04/30 11:43:36;;;;;;;3.70;2.05;;;11.80;99.90;;;;;;5030174;28;20052;-84
2021/04/30 11:46:02;;;;;;;2.28;2.08;;;11.70;99.90;;;;;;5030719;28;20018;-84
2021/04/30 11:48:30;;;;;;;2.38;2.17;;;11.80;99.90;;;;;;5030845;28;20030;-84
2021/04/30 11:51:07;;;;;;;2.25;2.05;;;11.90;99.90;;;;;;5025379;28;20032;-84
2021/04/30 11:53:34;;;;;;;2.28;2.08;;;11.90;99.90;;;;;;5029996;28;20029;-84
2021/04/30 11:56:00;;;;;;;3.47;2.42;;;11.80;99.90;;;;;;5030614;28;20018;-85
2021/04/30 11:58:37;;;;;;;3.00;2.70;;;11.70;99.90;;;;;;5030097;28;20091;-84
2021/04/30 12:01:04;;;;;;;4.28;2.40;;;11.70;99.90;;;;;;5029688;28;20108;-84
2021/04/30 12:03:42;;;;;;;2.65;2.20;;;12.10;99.90;;;;;;5030513;28;20026;-84
2021/04/30 12:06:13;;;;;;;3.25;2.20;;;12.50;99.90;;;;;;5031020;28;20029;-84
2021/04/30 12:08:40;;;;;;;1.90;1.77;;;13.40;99.90;;;;;;5028643;28;20037;-84
2021/04/30 12:11:06;;;;;;;2.20;2.00;;;13.40;99.90;;;;;;5030164;28;20048;-84
2021/04/30 12:13:31;;;;;;;1.95;1.77;;;12.80;99.90;;;;;;5029518;28;20025;-84
2021/04/30 12:15:57;;;;;;;2.42;2.22;;;13.00;99.90;;;;;;5029833;28;20075;-84
2021/04/30 12:18:31;;;;;;;2.92;2.33;;;12.80;99.90;;;;;;5031176;28;20030;-84
2021/04/30 12:20:57;;;;;;;1.60;1.50;;;13.40;99.90;;;;;;5029432;28;20025;-84
2021/04/30 12:23:22;;;;;;;1.77;1.67;;;12.70;99.90;;;;;;5029413;28;20029;-84
2021/04/30 12:25:49;;;;;;;1.70;1.60;;;13.00;99.90;;;;;;5027935;28;20482;-84
2021/04/30 12:28:27;;;;;;;1.90;1.65;;;12.70;99.90;;;;;;5030118;28;20037;-84
2021/04/30 12:31:06;;;;;;;1.63;1.50;;;12.30;99.90;;;;;;5014640;28;20471;-84
2021/04/30 12:33:47;;;;;;;2.30;1.90;;;12.40;99.90;;;;;;5029638;28;20026;-85
2021/04/30 12:36:12;;;;;;;2.35;1.58;;;12.40;99.90;;;;;;5026746;28;20685;-84
2021/04/30 12:38:40;;;;;;;1.90;1.60;;;12.30;99.90;;;;;;5029243;28;20068;-84
2021/04/30 12:41:09;;;;;;;1.98;1.75;;;12.10;99.90;;;;;;5027749;28;20397;-85
2021/04/30 12:43:37;;;;;;;1.58;1.48;;;12.10;99.90;;;;;;5031954;28;20025;-84
2021/04/30 12:46:23;;;;;;;1.88;1.73;;;12.20;99.90;;;;;;5033042;28;20405;-84
2021/04/30 12:48:54;;;;;;;3.58;1.73;;;12.40;99.90;;;;;;5018212;28;20528;-84
2021/04/30 12:51:31;;;;;;;2.20;1.65;;;12.50;99.90;;;;;;5034465;28;20108;-85
2021/04/30 12:53:57;;;;;;;2.70;1.60;;;12.50;99.90;;;;;;5034601;28;20022;-85